Time;durP1;ratioP1;P1;durP2;ratioP2;P2;SDS_P1;SDS_P2;PMS_P1;PMS_P2;Temp;Humidity;BMP_temperature;BMP_pressure;BME280_temperature;BME280_humidity;BME280_pressure;Samples;Min_cycle;Max_cycle;Signal;HPM_P1;HPM_P2
2022/12/18 08:46:58;;;;;;;25.07;12.83;;;-5.90;99.90;;;;;;5138323;27;20293;-83
2022/12/18 08:49:24;;;;;;;26.83;13.07;;;-5.90;99.90;;;;;;5137603;28;20517;-83
2022/12/18 08:51:54;;;;;;;30.27;14.17;;;-5.90;99.90;;;;;;5137689;28;20524;-83
2022/12/18 08:54:20;;;;;;;24.30;12.27;;;-5.70;99.90;;;;;;5135714;28;20239;-83
2022/12/18 08:56:46;;;;;;;25.10;12.70;;;-5.60;99.90;;;;;;5136467;28;20466;-83
2022/12/18 08:59:11;;;;;;;31.17;13.67;;;-5.60;99.90;;;;;;5137306;28;20183;-83
2022/12/18 09:01:37;;;;;;;25.73;12.60;;;-5.50;99.90;;;;;;5137999;28;20639;-83
2022/12/18 09:04:03;;;;;;;26.07;11.80;;;-5.50;99.90;;;;;;5138706;28;20630;-83
2022/12/18 09:06:28;;;;;;;27.73;12.60;;;-5.80;99.90;;;;;;5138517;28;20559;-83
2022/12/18 09:08:54;;;;;;;26.70;13.17;;;-5.70;99.90;;;;;;5143788;28;20199;-83
2022/12/18 09:11:25;;;;;;;27.13;12.77;;;-5.40;99.90;;;;;;5154274;28;20183;-83
2022/12/18 09:13:51;;;;;;;22.97;11.67;;;-5.20;99.90;;;;;;5153906;28;20170;-83
2022/12/18 09:16:18;;;;;;;25.87;11.53;;;-5.20;99.90;;;;;;5153700;28;20441;-80
2022/12/18 09:18:43;;;;;;;26.10;13.67;;;-5.20;99.90;;;;;;5154309;28;20454;-84
2022/12/18 09:21:15;;;;;;;22.93;12.60;;;-5.10;99.90;;;;;;5143155;28;20415;-83
2022/12/18 09:23:41;;;;;;;37.23;19.30;;;-5.10;99.90;;;;;;5136066;28;20174;-83
2022/12/18 09:26:07;;;;;;;20.37;11.97;;;-5.00;99.90;;;;;;5135528;28;20491;-84
2022/12/18 09:28:33;;;;;;;20.03;11.27;;;-4.50;99.90;;;;;;5133963;28;20428;-84
2022/12/18 09:31:03;;;;;;;24.80;11.93;;;-4.30;99.90;;;;;;5134926;28;20413;-83
2022/12/18 09:33:28;;;;;;;27.00;12.63;;;-4.20;99.90;;;;;;5135466;28;20902;-83
2022/12/18 09:35:54;;;;;;;20.07;10.73;;;-4.20;99.90;;;;;;5134183;28;20417;-83
2022/12/18 09:38:20;;;;;;;20.57;11.13;;;-4.30;99.90;;;;;;5136076;28;20232;-83
2022/12/18 09:40:49;;;;;;;16.13;10.27;;;-4.30;99.90;;;;;;5134140;28;20228;-83
2022/12/18 09:43:24;;;;;;;19.43;10.80;;;-4.40;99.90;;;;;;5134668;28;20179;-83
2022/12/18 09:45:55;;;;;;;19.13;10.30;;;-4.40;99.90;;;;;;5134445;28;20464;-84
2022/12/18 09:48:27;;;;;;;17.97;10.70;;;-4.70;99.90;;;;;;5134441;28;20462;-83
2022/12/18 09:50:58;;;;;;;19.90;11.23;;;-4.70;99.90;;;;;;5135764;28;20886;-83
2022/12/18 09:53:27;;;;;;;22.93;12.57;;;-4.60;99.90;;;;;;5134924;28;20416;-83
2022/12/18 09:55:56;;;;;;;20.57;12.03;;;-4.50;99.90;;;;;;5134345;28;20418;-83
2022/12/18 09:58:30;;;;;;;20.97;12.07;;;-4.20;99.90;;;;;;5120362;28;20424;-83
2022/12/18 10:00:56;;;;;;;24.30;12.57;;;-4.00;99.90;;;;;;5120332;28;20428;-83
2022/12/18 10:03:22;;;;;;;24.33;12.67;;;-3.50;99.90;;;;;;5120229;28;20432;-84
2022/12/18 10:06:14;;;;;;;20.90;12.77;;;-3.60;99.90;;;;;;5121826;28;20221;-83
2022/12/18 10:09:01;;;;;;;25.80;13.60;;;-3.80;99.90;;;;;;5122675;28;20159;-84
2022/12/18 10:11:49;;;;;;;25.47;14.20;;;-4.00;99.90;;;;;;5122125;28;20419;-84
2022/12/18 10:14:14;;;;;;;24.83;13.13;;;-4.10;99.90;;;;;;5120945;28;20417;-83
2022/12/18 10:16:58;;;;;;;25.77;13.13;;;-4.20;99.90;;;;;;5121549;28;20439;-83
2022/12/18 10:19:49;;;;;;;23.70;13.40;;;-4.40;99.90;;;;;;5120393;28;20232;-83
2022/12/18 10:22:49;;;;;;;22.10;12.43;;;-4.30;99.90;;;;;;5122574;28;20420;-84
2022/12/18 10:25:33;;;;;;;21.63;12.23;;;-4.20;99.90;;;;;;5121046;28;20820;-83
2022/12/18 10:28:12;;;;;;;22.83;13.53;;;-3.90;99.90;;;;;;5120919;28;20504;-84
2022/12/18 10:30:39;;;;;;;24.90;13.70;;;-3.60;99.90;;;;;;5121254;28;20413;-84
2022/12/18 10:33:05;;;;;;;20.73;12.37;;;-3.10;99.90;;;;;;5121070;28;20447;-84
2022/12/18 10:35:30;;;;;;;22.97;14.07;;;-2.60;99.90;;;;;;5122700;28;20409;-84
2022/12/18 10:38:20;;;;;;;21.47;13.03;;;-2.50;99.90;;;;;;5122704;28;20561;-84
2022/12/18 10:41:00;;;;;;;22.07;13.33;;;-2.70;99.90;;;;;;5112440;28;20555;-84
2022/12/18 10:43:32;;;;;;;21.53;13.57;;;-2.80;99.90;;;;;;5122547;28;20417;-84
2022/12/18 10:46:05;;;;;;;23.30;14.03;;;-2.40;99.90;;;;;;5123573;28;20473;-84
2022/12/18 10:48:33;;;;;;;24.67;14.77;;;-2.00;99.90;;;;;;5121803;28;20409;-84
2022/12/18 10:50:59;;;;;;;21.97;13.50;;;-1.70;99.90;;;;;;5118848;28;20425;-84
2022/12/18 10:53:31;;;;;;;20.70;13.70;;;-1.10;99.90;;;;;;5119963;28;20446;-84
2022/12/18 10:56:02;;;;;;;19.93;12.90;;;-0.50;99.90;;;;;;5119560;28;20488;-84
2022/12/18 10:58:37;;;;;;;19.13;13.13;;;-0.40;99.90;;;;;;5119371;28;20165;-84
2022/12/18 11:01:20;;;;;;;23.63;13.43;;;-0.20;99.90;;;;;;5121673;28;20176;-84
2022/12/18 11:03:52;;;;;;;19.20;12.63;;;-0.10;99.90;;;;;;5128631;28;20182;-84
2022/12/18 11:06:24;;;;;;;17.57;11.73;;;-0.10;99.90;;;;;;5138312;28;20197;-84
2022/12/18 11:09:25;;;;;;;21.87;13.27;;;0.10;99.90;;;;;;5121195;28;20235;-86
2022/12/18 11:11:53;;;;;;;25.67;12.67;;;0.40;99.90;;;;;;5120037;28;20182;-83
2022/12/18 11:14:42;;;;;;;17.67;12.17;;;0.80;99.90;;;;;;5121700;28;20179;-85
2022/12/18 11:17:18;;;;;;;20.30;13.50;;;1.00;99.90;;;;;;5120731;28;20210;-85
2022/12/18 11:19:44;;;;;;;20.83;13.60;;;0.90;99.90;;;;;;5120653;28;20284;-81
2022/12/18 11:22:23;;;;;;;20.07;13.57;;;0.60;99.90;;;;;;5121168;28;20176;-82
2022/12/18 11:25:17;;;;;;;22.90;15.03;;;0.40;99.90;;;;;;5120799;28;20172;-82
2022/12/18 11:27:54;;;;;;;21.30;14.50;;;0.00;99.90;;;;;;5119546;28;20257;-80
2022/12/18 11:30:20;;;;;;;22.37;14.97;;;-0.20;99.90;;;;;;5115918;28;20171;-80
2022/12/18 11:33:00;;;;;;;21.23;14.27;;;-0.60;99.90;;;;;;5120265;28;20164;-81
2022/12/18 11:35:49;;;;;;;22.03;14.30;;;-0.80;99.90;;;;;;5121636;28;20177;-81
2022/12/18 11:38:25;;;;;;;24.90;16.30;;;-0.90;99.90;;;;;;5118500;28;20195;-81
2022/12/18 11:41:12;;;;;;;22.37;14.73;;;-0.80;99.90;;;;;;5117685;28;20181;-80
2022/12/18 11:43:45;;;;;;;22.40;14.83;;;-0.40;99.90;;;;;;5119085;28;20164;-80
2022/12/18 11:46:17;;;;;;;24.47;15.40;;;0.10;99.90;;;;;;5117579;28;20248;-80
2022/12/18 11:49:11;;;;;;;20.97;13.90;;;0.50;99.90;;;;;;5119164;28;20239;-81
2022/12/18 11:51:57;;;;;;;21.23;14.17;;;0.70;99.90;;;;;;5119277;28;20597;-80
2022/12/18 11:54:22;;;;;;;25.00;16.13;;;1.00;99.90;;;;;;5117019;28;20163;-80
2022/12/18 11:56:55;;;;;;;26.10;16.27;;;1.20;99.90;;;;;;5118246;28;20298;-80
2022/12/18 11:59:50;;;;;;;23.70;15.97;;;0.40;99.90;;;;;;5118896;28;20281;-81
2022/12/18 12:02:16;;;;;;;24.13;15.80;;;-1.10;99.90;;;;;;5119395;28;20163;-80
2022/12/18 12:05:03;;;;;;;24.33;15.17;;;-1.80;99.90;;;;;;5118117;28;20181;-80
2022/12/18 12:07:34;;;;;;;21.57;14.20;;;-2.10;99.90;;;;;;5118082;28;20203;-81
2022/12/18 12:10:45;;;;;;;24.03;14.50;;;-2.60;99.90;;;;;;5116914;28;20663;-80
2022/12/18 12:13:16;;;;;;;24.20;15.23;;;-2.70;99.90;;;;;;5115736;28;20180;-80
2022/12/18 12:16:05;;;;;;;23.63;13.90;;;-2.60;99.90;;;;;;5117680;28;20179;-81
2022/12/18 12:18:40;;;;;;;25.27;14.27;;;-2.70;99.90;;;;;;5117782;28;20187;-80
2022/12/18 12:21:27;;;;;;;20.73;13.00;;;-2.50;99.90;;;;;;5117512;28;20695;-80
2022/12/18 12:24:00;;;;;;;22.67;13.90;;;-2.60;99.90;;;;;;5118143;28;20409;-80
2022/12/18 12:26:34;;;;;;;28.33;16.07;;;-2.60;99.90;;;;;;5119919;28;20947;-81
2022/12/18 12:29:14;;;;;;;24.67;14.00;;;-2.40;99.90;;;;;;5121464;28;20488;-80
2022/12/18 12:32:14;;;;;;;23.67;13.30;;;-2.40;99.90;;;;;;5130103;28;20457;-80
2022/12/18 12:34:55;;;;;;;23.47;13.80;;;-2.30;99.90;;;;;;5097693;28;20413;-82
2022/12/18 12:37:49;;;;;;;22.30;13.60;;;-2.20;99.90;;;;;;5123466;28;20440;-82
2022/12/18 12:40:21;;;;;;;22.47;13.17;;;-2.20;99.90;;;;;;5123053;28;20390;-82
2022/12/18 12:43:38;;;;;;;25.93;15.67;;;-2.30;99.90;;;;;;5120537;28;20409;-82
2022/12/18 12:46:16;;;;;;;22.07;14.13;;;-2.60;99.90;;;;;;5086626;28;20476;-83
2022/12/18 12:48:57;;;;;;;22.93;13.23;;;-2.60;99.90;;;;;;5121842;28;20954;-82
2022/12/18 12:51:36;;;;;;;20.70;12.03;;;-2.70;99.90;;;;;;5119803;28;20936;-82
2022/12/18 12:54:06;;;;;;;22.13;12.63;;;-2.90;99.90;;;;;;5119414;28;20401;-83
2022/12/18 12:56:43;;;;;;;21.93;12.27;;;-2.90;99.90;;;;;;5117454;28;20437;-83
2022/12/18 12:59:21;;;;;;;27.07;14.53;;;-3.10;99.90;;;;;;5121107;28;20400;-84
2022/12/18 13:01:57;;;;;;;23.83;14.23;;;-3.10;99.90;;;;;;5121936;28;20385;-86
2022/12/18 13:04:29;;;;;;;24.23;13.17;;;-3.20;99.90;;;;;;5121585;28;20449;-81
2022/12/18 13:07:12;;;;;;;23.67;12.57;;;-3.50;99.90;;;;;;5122408;28;20990;-80
2022/12/18 13:10:16;;;;;;;21.93;14.17;;;-3.50;99.90;;;;;;5121888;28;20385;-81
2022/12/18 13:13:00;;;;;;;36.53;27.73;;;-3.70;99.90;;;;;;5119295;28;20417;-81
2022/12/18 13:15:59;;;;;;;25.67;14.53;;;-3.80;99.90;;;;;;5119622;28;20413;-79
2022/12/18 13:18:25;;;;;;;31.40;21.50;;;-4.00;99.90;;;;;;5100374;28;20413;-80
2022/12/18 13:21:21;;;;;;;28.63;20.67;;;-3.90;99.90;;;;;;5122074;28;20405;-80
2022/12/18 13:23:47;;;;;;;40.33;29.87;;;-3.80;99.90;;;;;;5120622;28;20485;-80
2022/12/18 13:26:16;;;;;;;24.37;14.53;;;-3.40;99.90;;;;;;5121551;28;20499;-81
2022/12/18 13:28:47;;;;;;;29.93;18.83;;;-2.80;99.90;;;;;;5123368;28;20167;-81
2022/12/18 13:31:41;;;;;;;28.23;18.17;;;-3.70;99.90;;;;;;5118411;28;20484;-80
2022/12/18 13:34:23;;;;;;;36.03;24.27;;;-3.60;99.90;;;;;;5129965;28;20416;-80
2022/12/18 13:36:51;;;;;;;22.50;11.73;;;-3.60;99.90;;;;;;5131790;28;20440;-79
2022/12/18 13:39:22;;;;;;;38.10;26.47;;;-3.70;99.90;;;;;;5133400;28;20408;-81
2022/12/18 13:41:51;;;;;;;27.57;16.83;;;-3.90;99.90;;;;;;5136730;28;20476;-79
2022/12/18 13:44:41;;;;;;;35.40;27.77;;;-3.90;99.90;;;;;;5134823;28;20390;-80
2022/12/18 13:47:37;;;;;;;24.03;13.27;;;-3.90;99.90;;;;;;5124633;28;20437;-80
2022/12/18 13:50:27;;;;;;;23.90;12.50;;;-3.90;99.90;;;;;;5113904;28;20873;-80
2022/12/18 13:52:54;;;;;;;22.03;12.67;;;-4.10;99.90;;;;;;5121733;28;20747;-80
2022/12/18 13:55:20;;;;;;;24.50;12.50;;;-4.10;99.90;;;;;;5122152;28;20409;-80
2022/12/18 13:57:46;;;;;;;22.27;11.63;;;-4.30;99.90;;;;;;5122940;28;20428;-80
2022/12/18 14:00:27;;;;;;;23.73;11.77;;;-3.70;99.90;;;;;;5121605;28;20401;-80
2022/12/18 14:02:53;;;;;;;23.43;12.53;;;-4.40;99.90;;;;;;5122827;28;20401;-80
2022/12/18 14:05:35;;;;;;;27.07;12.93;;;-4.50;99.90;;;;;;5123487;28;20445;-80
2022/12/18 14:08:14;;;;;;;27.50;13.37;;;-4.60;99.90;;;;;;5122629;28;20527;-80
2022/12/18 14:10:49;;;;;;;27.50;12.50;;;-4.70;99.90;;;;;;5124742;28;20401;-81
2022/12/18 14:13:31;;;;;;;34.33;20.50;;;-4.80;99.90;;;;;;5125604;28;20401;-80
2022/12/18 14:16:00;;;;;;;48.07;31.97;;;-4.90;99.90;;;;;;5134578;28;20448;-79
2022/12/18 14:18:41;;;;;;;30.73;15.50;;;-5.00;99.90;;;;;;5127681;28;20409;-80
2022/12/18 14:21:23;;;;;;;23.17;12.57;;;-5.10;99.90;;;;;;5124385;28;20413;-80
2022/12/18 14:23:48;;;;;;;24.57;10.53;;;-5.10;99.90;;;;;;5123191;28;20457;-80
2022/12/18 14:26:28;;;;;;;71.23;14.13;;;-5.20;99.90;;;;;;5120644;28;20456;-77
2022/12/18 14:29:00;;;;;;;31.90;15.30;;;-5.20;99.90;;;;;;5116719;28;20393;-77
2022/12/18 14:31:28;;;;;;;28.60;13.80;;;-5.20;99.90;;;;;;5114730;28;20420;-77
2022/12/18 14:33:55;;;;;;;29.00;13.37;;;-5.20;99.90;;;;;;5115837;28;20442;-77
2022/12/18 14:36:28;;;;;;;34.93;14.87;;;-5.10;99.90;;;;;;5116092;28;20434;-76
2022/12/18 14:38:56;;;;;;;24.20;13.07;;;-5.10;99.90;;;;;;5118893;28;20861;-77
2022/12/18 14:41:23;;;;;;;26.37;11.20;;;-5.00;99.90;;;;;;5114632;28;20468;-77
2022/12/18 14:43:51;;;;;;;35.23;13.47;;;-5.10;99.90;;;;;;5116163;28;20481;-77
2022/12/18 14:46:30;;;;;;;25.30;12.47;;;-5.20;99.90;;;;;;5116025;28;20543;-77
2022/12/18 14:48:56;;;;;;;26.93;13.60;;;-5.30;99.90;;;;;;5122607;28;20460;-77
2022/12/18 14:51:28;;;;;;;31.73;15.03;;;-5.20;99.90;;;;;;5114401;28;20456;-77
2022/12/18 14:54:03;;;;;;;27.40;13.73;;;-5.20;99.90;;;;;;5114283;28;20482;-77
2022/12/18 14:56:34;;;;;;;22.23;11.33;;;-5.40;99.90;;;;;;5114384;28;20442;-77
2022/12/18 14:59:22;;;;;;;22.33;11.77;;;-5.40;99.90;;;;;;5115753;28;20412;-77
2022/12/18 15:02:19;;;;;;;30.00;13.93;;;-5.40;99.90;;;;;;5114086;28;20424;-77
2022/12/18 15:04:45;;;;;;;25.13;12.30;;;-5.30;99.90;;;;;;5110108;28;20445;-77
2022/12/18 15:07:12;;;;;;;30.27;14.37;;;-5.30;99.90;;;;;;5115459;28;20508;-79
2022/12/18 15:09:40;;;;;;;38.17;14.10;;;-5.40;99.90;;;;;;5119307;28;20173;-79
2022/12/18 15:12:17;;;;;;;27.87;13.77;;;-5.50;99.90;;;;;;5119628;28;20912;-79
2022/12/18 15:14:43;;;;;;;26.57;11.63;;;-5.50;99.90;;;;;;5120139;28;20383;-79
2022/12/18 15:17:19;;;;;;;21.97;9.63;;;-5.80;99.90;;;;;;5118721;28;20436;-79
2022/12/18 15:19:46;;;;;;;27.17;12.60;;;-5.90;99.90;;;;;;5120443;28;20157;-80
2022/12/18 15:22:27;;;;;;;28.40;11.97;;;-5.90;99.90;;;;;;5116793;28;20436;-78
2022/12/18 15:24:57;;;;;;;23.53;10.90;;;-6.00;99.90;;;;;;5117459;28;20403;-78
2022/12/18 15:27:28;;;;;;;32.43;11.10;;;-5.90;99.90;;;;;;5117847;28;20430;-81
2022/12/18 15:30:10;;;;;;;28.87;12.57;;;-5.90;99.90;;;;;;5119893;28;20497;-80
2022/12/18 15:32:37;;;;;;;25.13;11.60;;;-5.90;99.90;;;;;;5119231;28;20495;-81
2022/12/18 15:35:09;;;;;;;30.13;13.50;;;-6.00;99.90;;;;;;5117828;28;20484;-81
2022/12/18 15:37:34;;;;;;;33.23;14.53;;;-6.00;99.90;;;;;;5117920;28;20573;-81
2022/12/18 15:40:02;;;;;;;50.13;13.03;;;-6.00;99.90;;;;;;5117861;28;20452;-81
2022/12/18 15:45:29;;;;;;;29.90;14.47;;;-6.00;99.90;;;;;;5076330;28;20850;-81
2022/12/18 15:47:55;;;;;;;36.07;13.63;;;-6.00;99.90;;;;;;5110415;28;20454;-81
2022/12/18 15:50:21;;;;;;;37.97;17.23;;;-6.00;99.90;;;;;;5120674;28;20249;-79
2022/12/18 15:52:49;;;;;;;39.00;16.73;;;-6.00;99.90;;;;;;5118902;28;20825;-79
2022/12/18 15:58:07;;;;;;;34.50;15.53;;;-6.10;99.90;;;;;;5116657;28;20443;-78
2022/12/18 16:00:37;;;;;;;30.90;15.20;;;-6.30;99.90;;;;;;5117270;28;20408;-79
2022/12/18 16:03:03;;;;;;;28.67;13.17;;;-6.30;99.90;;;;;;5116614;28;20419;-80
2022/12/18 16:05:30;;;;;;;31.43;13.43;;;-6.30;99.90;;;;;;5117741;28;20987;-80
2022/12/18 16:07:56;;;;;;;33.33;13.97;;;-6.30;99.90;;;;;;5118196;28;20440;-79
2022/12/18 16:10:23;;;;;;;29.70;14.10;;;-6.40;99.90;;;;;;5119616;28;20418;-81
2022/12/18 16:12:49;;;;;;;28.93;13.43;;;-6.40;99.90;;;;;;5117964;28;20187;-79
2022/12/18 16:15:15;;;;;;;34.73;14.20;;;-6.40;99.90;;;;;;5121402;28;20418;-81
2022/12/18 16:17:45;;;;;;;32.33;14.03;;;-6.30;99.90;;;;;;5121733;28;20254;-80
2022/12/18 16:20:16;;;;;;;31.27;13.07;;;-6.30;99.90;;;;;;5121087;28;20426;-80
2022/12/18 16:22:45;;;;;;;37.20;13.93;;;-6.20;99.90;;;;;;5122346;28;20474;-80
2022/12/18 16:25:27;;;;;;;35.43;13.83;;;-6.20;99.90;;;;;;5121130;28;20461;-80
2022/12/18 16:27:57;;;;;;;32.60;14.00;;;-6.20;99.90;;;;;;5121852;28;20488;-79
2022/12/18 16:30:28;;;;;;;36.27;15.07;;;-6.20;99.90;;;;;;5122519;28;20759;-79
2022/12/18 16:32:54;;;;;;;26.63;12.87;;;-6.20;99.90;;;;;;5119970;28;20411;-80
2022/12/18 16:35:21;;;;;;;28.80;13.77;;;-6.20;99.90;;;;;;5122042;28;20456;-80
2022/12/18 16:37:47;;;;;;;34.70;13.33;;;-6.30;99.90;;;;;;5122530;28;20454;-80
2022/12/18 16:40:15;;;;;;;28.07;13.27;;;-6.40;99.90;;;;;;5122681;28;20488;-80
2022/12/18 16:42:43;;;;;;;34.67;13.53;;;-6.40;99.90;;;;;;5122951;28;20176;-79
2022/12/18 16:45:11;;;;;;;37.13;16.67;;;-6.50;99.90;;;;;;5122588;28;20502;-82
2022/12/18 16:47:38;;;;;;;33.00;14.70;;;-6.30;99.90;;;;;;5123089;28;20826;-80
2022/12/18 16:50:05;;;;;;;35.57;17.50;;;-6.30;99.90;;;;;;5122883;28;20436;-80
2022/12/18 16:52:31;;;;;;;37.03;16.63;;;-6.30;99.90;;;;;;5122947;28;20413;-80
2022/12/18 16:54:57;;;;;;;38.87;19.10;;;-6.30;99.90;;;;;;5124991;28;20502;-80
2022/12/18 16:57:23;;;;;;;44.00;22.20;;;-6.20;99.90;;;;;;5122667;28;20191;-80
2022/12/18 16:59:49;;;;;;;42.37;19.80;;;-6.20;99.90;;;;;;5123429;28;20179;-80
2022/12/18 17:02:20;;;;;;;38.27;17.60;;;-6.10;99.90;;;;;;5124894;28;20198;-79
2022/12/18 17:04:47;;;;;;;32.03;15.80;;;-6.10;99.90;;;;;;5124205;28;20209;-80
2022/12/18 17:07:13;;;;;;;38.00;16.47;;;-6.10;99.90;;;;;;5126477;28;20469;-80
2022/12/18 17:09:39;;;;;;;41.63;17.30;;;-6.00;99.90;;;;;;5128670;28;20437;-80
2022/12/18 17:12:05;;;;;;;33.73;15.77;;;-6.00;99.90;;;;;;5128057;28;20434;-79
2022/12/18 17:14:32;;;;;;;41.73;17.50;;;-6.00;99.90;;;;;;5126907;28;20182;-80
2022/12/18 17:16:58;;;;;;;44.20;18.10;;;-6.10;99.90;;;;;;5127516;28;20445;-80
2022/12/18 17:19:25;;;;;;;36.20;15.83;;;-6.10;99.90;;;;;;5133409;28;20401;-79
2022/12/18 17:21:50;;;;;;;41.47;18.17;;;-6.10;99.90;;;;;;5136037;28;20542;-80
2022/12/18 17:24:17;;;;;;;39.77;15.50;;;-6.10;99.90;;;;;;5135005;28;20424;-80
2022/12/18 17:26:43;;;;;;;32.23;14.47;;;-6.10;99.90;;;;;;5128445;28;20213;-80
2022/12/18 17:29:15;;;;;;;27.87;13.20;;;-6.00;99.90;;;;;;5127404;28;20412;-80
2022/12/18 17:31:41;;;;;;;29.40;14.57;;;-5.80;99.90;;;;;;5128424;28;20399;-80
2022/12/18 17:34:09;;;;;;;31.47;14.40;;;-6.00;99.90;;;;;;5127119;28;20423;-81
2022/12/18 17:36:35;;;;;;;32.90;13.63;;;-6.00;99.90;;;;;;5126614;28;20445;-80
2022/12/18 17:39:03;;;;;;;27.90;13.80;;;-6.00;99.90;;;;;;5127432;28;20433;-80
2022/12/18 17:41:29;;;;;;;24.90;12.90;;;-5.90;99.90;;;;;;5130103;28;20189;-80
2022/12/18 17:44:00;;;;;;;28.07;13.47;;;-5.90;99.90;;;;;;5133872;28;20421;-79
2022/12/18 17:46:27;;;;;;;25.00;12.40;;;-5.90;99.90;;;;;;5133958;28;20553;-79
2022/12/18 17:48:57;;;;;;;30.73;13.87;;;-5.90;99.90;;;;;;5133785;28;20442;-80
2022/12/18 17:51:23;;;;;;;30.80;15.00;;;-5.90;99.90;;;;;;5133037;28;20422;-79
2022/12/18 17:53:49;;;;;;;31.03;13.63;;;-5.80;99.90;;;;;;5132927;28;20426;-79
2022/12/18 17:56:17;;;;;;;55.90;22.30;;;-5.80;99.90;;;;;;5129442;28;20192;-79
2022/12/18 17:58:43;;;;;;;39.33;18.67;;;-5.70;99.90;;;;;;5126838;28;20417;-80
2022/12/18 18:01:13;;;;;;;33.90;16.13;;;-5.80;99.90;;;;;;5125036;28;20411;-80
2022/12/18 18:03:39;;;;;;;39.93;16.63;;;-5.80;99.90;;;;;;5123245;28;20539;-80
2022/12/18 18:06:06;;;;;;;41.37;18.67;;;-5.80;99.90;;;;;;5125115;28;20461;-80
2022/12/18 18:08:33;;;;;;;39.47;17.83;;;-5.80;99.90;;;;;;5124446;28;20441;-80
